createdAt,value
2019-03-19T00:00:48.253Z,13.2
2019-03-19T00:05:50.718Z,12.5
2019-03-19T00:10:53.193Z,10
2019-03-19T00:15:55.650Z,9
2019-03-19T00:20:58.113Z,9.8
2019-03-19T00:26:00.684Z,7.6
2019-03-19T00:31:03.042Z,6.1
2019-03-19T00:36:05.566Z,6
2019-03-19T00:41:08.301Z,7.6
2019-03-19T00:46:10.443Z,10.1
2019-03-19T00:51:12.908Z,10.8
2019-03-19T00:56:15.503Z,12.9
2019-03-19T01:01:18.198Z,19
2019-03-19T01:06:20.383Z,21.2
2019-03-19T01:11:23.093Z,22.4
2019-03-19T01:16:25.246Z,20.7
2019-03-19T01:21:27.772Z,19.2
2019-03-19T01:26:30.224Z,17.1
2019-03-19T01:31:32.719Z,14
2019-03-19T01:36:35.130Z,13.3
2019-03-19T01:41:37.572Z,14.7
2019-03-19T01:46:40.083Z,16.2
2019-03-19T01:51:42.704Z,15.7
2019-03-19T01:56:45.045Z,16.8
2019-03-19T02:01:47.443Z,13.7
2019-03-19T02:06:50.041Z,10.6
2019-03-19T02:11:52.652Z,10.2
2019-03-19T02:16:54.956Z,9.5
2019-03-19T02:21:57.303Z,9
2019-03-19T02:27:04.779Z,8.4
2019-03-19T02:32:02.290Z,6.6
2019-03-19T02:37:04.719Z,5.9
2019-03-19T02:42:07.174Z,7.2
2019-03-19T02:47:09.608Z,9.6
2019-03-19T02:52:12.065Z,14.5
2019-03-19T03:02:17.055Z,21
2019-03-19T03:07:19.487Z,27.9
2019-03-19T03:12:22.248Z,33.5
2019-03-19T03:17:24.418Z,37
2019-03-19T03:27:29.331Z,35.8
2019-03-19T03:32:31.834Z,36.3
2019-03-19T03:37:34.246Z,42
2019-03-19T03:42:36.730Z,45.8
2019-03-19T03:47:39.214Z,50.3
2019-03-19T03:52:41.848Z,51.9
2019-03-19T03:57:44.126Z,48.5
2019-03-19T04:02:46.655Z,46.7
2019-03-19T04:07:49.036Z,46.4
2019-03-19T04:17:53.964Z,53
2019-03-19T04:22:56.444Z,78.7
2019-03-19T04:27:58.872Z,90.6
2019-03-19T04:33:01.433Z,92.6
2019-03-19T04:38:03.820Z,96.1
2019-03-19T04:43:06.314Z,99.9
2019-03-19T04:48:08.749Z,99.9
2019-03-19T04:53:11.454Z,99.9
2019-03-19T04:58:13.646Z,99.9
2019-03-19T05:03:16.173Z,99.9
2019-03-19T05:08:18.575Z,99.9
2019-03-19T05:13:21.030Z,99.9
2019-03-19T05:18:23.492Z,99.9
2019-03-19T05:23:25.937Z,99.9
2019-03-19T05:28:28.420Z,99.9
2019-03-19T05:33:30.906Z,99.9
2019-03-19T05:38:33.322Z,99.9
2019-03-19T05:43:35.792Z,99.9
2019-03-19T05:48:38.260Z,99.9
2019-03-19T05:53:40.725Z,99.9
2019-03-19T05:58:43.211Z,99.9
2019-03-19T06:03:45.782Z,99.9
2019-03-19T06:08:48.154Z,99.9
2019-03-19T06:13:50.625Z,99.9
2019-03-19T06:18:53.076Z,99.9
2019-03-19T06:23:55.492Z,99.9
2019-03-19T06:28:57.962Z,99.9
2019-03-19T06:34:00.644Z,99.9
2019-03-19T06:39:02.918Z,99.9
2019-03-19T06:44:05.439Z,99.5
2019-03-19T06:49:08.118Z,62.5
2019-03-19T06:54:10.293Z,49.7
2019-03-19T06:59:12.752Z,41.5
2019-03-19T07:04:15.385Z,38.5
2019-03-19T07:09:17.685Z,32.9
2019-03-19T07:14:20.154Z,20.1
2019-03-19T07:19:22.643Z,12.3
2019-03-19T07:24:25.062Z,1
2019-03-19T07:29:27.596Z,1
2019-03-19T07:34:30.085Z,1
2019-03-19T07:39:32.489Z,1
2019-03-19T07:44:34.899Z,1
2019-03-19T07:49:37.430Z,1
2019-03-19T07:54:39.919Z,1
2019-03-19T07:59:42.295Z,1
2019-03-19T08:04:44.863Z,1
2019-03-19T08:09:47.180Z,1
2019-03-19T08:14:49.678Z,1
2019-03-19T08:19:52.422Z,1
2019-03-19T08:24:54.615Z,1
2019-03-19T08:29:57.020Z,1
2019-03-19T08:34:59.598Z,1
2019-03-19T08:40:02.191Z,1
2019-03-19T08:45:04.389Z,1
2019-03-19T08:50:07.186Z,1
2019-03-19T08:55:09.308Z,1
2019-03-19T09:00:11.883Z,1
2019-03-19T09:05:14.275Z,1
2019-03-19T09:10:16.676Z,1
2019-03-19T09:15:19.132Z,1
2019-03-19T09:20:21.892Z,1
2019-03-19T09:25:24.052Z,1
2019-03-19T09:30:26.503Z,1
2019-03-19T09:35:29.012Z,1
2019-03-19T09:40:31.540Z,1
2019-03-19T09:45:33.890Z,1
2019-03-19T09:50:36.633Z,1
2019-03-19T09:55:38.820Z,1
2019-03-19T10:00:41.436Z,1
2019-03-19T10:10:46.251Z,1
2019-03-19T10:15:48.704Z,1
2019-03-19T10:20:51.386Z,1
2019-03-19T10:25:53.560Z,1
2019-03-19T10:30:56.127Z,1
2019-03-19T10:35:58.438Z,1
2019-03-19T10:41:00.928Z,1
2019-03-19T10:46:03.399Z,1
2019-03-19T10:51:05.833Z,1
2019-03-19T10:56:08.310Z,1
2019-03-19T11:01:10.761Z,1
2019-03-19T11:06:13.202Z,1
2019-03-19T11:11:15.767Z,1
2019-03-19T11:16:18.106Z,1
2019-03-19T11:21:20.584Z,1
2019-03-19T11:26:23.045Z,1
2019-03-19T11:31:25.503Z,1
2019-03-19T11:36:28.056Z,1
2019-03-19T11:41:30.642Z,1
2019-03-19T11:46:32.872Z,1
2019-03-19T11:51:35.334Z,1
2019-03-19T11:56:37.822Z,1
2019-03-19T12:06:42.735Z,1
2019-03-19T12:11:45.456Z,1
2019-03-19T12:16:47.669Z,1
2019-03-19T12:21:50.365Z,1
2019-03-19T12:26:52.573Z,1
2019-03-19T12:31:54.973Z,1
2019-03-19T12:36:57.644Z,1
2019-03-19T12:42:00.148Z,1
2019-03-19T12:47:02.386Z,1
2019-03-19T12:52:04.807Z,1
2019-03-19T12:57:07.278Z,1
2019-03-19T13:02:09.756Z,1
2019-03-19T13:07:12.560Z,1
2019-03-19T13:12:14.744Z,1
2019-03-19T13:17:17.218Z,1
2019-03-19T13:22:19.601Z,1
2019-03-19T13:32:24.480Z,1
2019-03-19T13:37:26.922Z,1
2019-03-19T13:42:29.468Z,1
2019-03-19T13:47:31.899Z,1
2019-03-19T13:52:34.602Z,1
2019-03-19T13:57:36.938Z,1
2019-03-19T14:02:39.263Z,1
2019-03-19T14:07:41.691Z,1
2019-03-19T14:12:44.214Z,1
2019-03-19T14:22:49.384Z,1
2019-03-19T14:27:51.510Z,1
2019-03-19T14:32:53.974Z,1
2019-03-19T14:37:56.466Z,1
2019-03-19T14:43:01.274Z,1
2019-03-19T14:48:01.402Z,1
2019-03-19T14:53:04.124Z,1
2019-03-19T14:58:06.534Z,1
2019-03-19T15:03:08.721Z,1
2019-03-19T15:08:11.199Z,1
2019-03-19T15:13:13.721Z,1
2019-03-19T15:18:16.084Z,1
2019-03-19T15:23:18.883Z,1
2019-03-19T15:28:21.122Z,1
2019-03-19T15:33:23.459Z,1
2019-03-19T15:38:25.919Z,1
2019-03-19T15:43:28.451Z,1
2019-03-19T15:48:30.841Z,1
2019-03-19T15:53:33.612Z,1
2019-03-19T15:58:35.767Z,1
2019-03-19T16:03:38.206Z,1
2019-03-19T16:13:43.223Z,1
2019-03-19T16:18:45.567Z,1
2019-03-19T16:23:48.027Z,1
2019-03-19T16:28:50.502Z,1
2019-03-19T16:33:52.961Z,1
2019-03-19T16:38:55.426Z,1
2019-03-19T16:43:57.979Z,1
2019-03-19T16:49:00.331Z,1
2019-03-19T16:54:03.135Z,1
2019-03-19T16:59:05.239Z,1
2019-03-19T17:04:07.711Z,1
2019-03-19T17:09:10.161Z,1
2019-03-19T17:14:12.713Z,1
2019-03-19T17:24:17.599Z,1
2019-03-19T17:29:19.984Z,1
2019-03-19T17:34:22.484Z,1
2019-03-19T17:39:24.898Z,1
2019-03-19T17:44:27.418Z,1
2019-03-19T17:54:32.326Z,1
2019-03-19T17:59:34.774Z,1
2019-03-19T18:04:37.186Z,1
2019-03-19T18:09:39.623Z,1
2019-03-19T18:14:42.193Z,1
2019-03-19T18:19:44.691Z,1
2019-03-19T18:24:47.299Z,1
2019-03-19T18:29:49.502Z,1
2019-03-19T18:34:51.948Z,1
2019-03-19T18:39:54.407Z,1
2019-03-19T18:44:56.825Z,1
2019-03-19T18:49:59.322Z,1
2019-03-19T18:55:06.742Z,1
2019-03-19T19:00:04.248Z,1
2019-03-19T19:05:06.656Z,1
2019-03-19T19:10:09.120Z,1
2019-03-19T19:15:11.589Z,1
2019-03-19T19:20:14.050Z,1
2019-03-19T19:25:16.483Z,1
2019-03-19T19:30:18.944Z,1
2019-03-19T19:40:23.929Z,1
2019-03-19T19:45:26.376Z,1
2019-03-19T19:50:28.756Z,1
2019-03-19T19:55:31.279Z,1
2019-03-19T20:00:33.691Z,1
2019-03-19T20:05:36.144Z,1
2019-03-19T20:10:38.593Z,1
2019-03-19T20:15:41.066Z,1
2019-03-19T20:20:43.518Z,1
2019-03-19T20:25:46.249Z,1
2019-03-19T20:30:48.441Z,1
2019-03-19T20:35:50.959Z,1
2019-03-19T20:40:53.340Z,1
2019-03-19T20:45:55.888Z,1
2019-03-19T20:50:58.330Z,1
2019-03-19T20:56:00.741Z,1
2019-03-19T21:01:03.237Z,1
2019-03-19T21:06:05.749Z,1
2019-03-19T21:11:08.109Z,1
2019-03-19T21:16:10.581Z,1
2019-03-19T21:21:13.022Z,1
2019-03-19T21:26:15.493Z,1
2019-03-19T21:31:17.967Z,1
2019-03-19T21:36:20.622Z,1
2019-03-19T21:41:22.877Z,1
2019-03-19T21:46:25.350Z,1
2019-03-19T21:51:27.797Z,1
2019-03-19T21:56:30.299Z,1
2019-03-19T22:01:32.736Z,1
2019-03-19T22:11:37.646Z,1
2019-03-19T22:16:40.143Z,1
2019-03-19T22:21:42.568Z,1
2019-03-19T22:26:45.343Z,1
2019-03-19T22:31:47.706Z,1
2019-03-19T22:36:50.110Z,1
2019-03-19T22:41:52.416Z,1
2019-03-19T22:46:54.893Z,1
2019-03-19T22:51:57.341Z,1
2019-03-19T22:56:59.812Z,1
2019-03-19T23:02:02.362Z,1
2019-03-19T23:07:04.799Z,1
2019-03-19T23:12:07.274Z,1
2019-03-19T23:17:09.657Z,1
2019-03-19T23:22:12.136Z,1
2019-03-19T23:27:14.638Z,1
2019-03-19T23:32:17.046Z,1
2019-03-19T23:37:19.516Z,1
2019-03-19T23:42:22.044Z,1
2019-03-19T23:47:24.460Z,1
2019-03-19T23:52:26.903Z,1
2019-03-19T23:57:29.658Z,1
